Clyde, North Carolina
Current Conditions -  °F | °C
As of 6:54 AM on Tuesday 27 Jan 2015 (Local Time) from KAVL Reporting Station
Overcast Overcast  
Wind Chill: 19°   Ceiling: 2600
Heat Index: 28°   Visibility: 10mi
Dew Point: 22°   Wind: 9mph
Humidity: 78%   Direction: 350°N
Pressure: 29.78"   Gusts: NA
Location:  35.53°N, 82.91°W
Report Text: KAVL 271154Z 35008KT 10SM OVC026 M02/M06 A2978 RMK AO2 SLP096 70002 T10221056 11022 21028 53008
Loading
Personal Weather Stations






























Interactive Weather Map New forecast layout! Learn more

10-Day Weather Forecast

Advertisements
Track Severe Weather on mobile